sensor_id;sensor_type;location;lat;lon;timestamp;P1;durP1;ratioP1;P2;durP2;ratioP2
21507;SDS011;10915;54.352;9.074;2022-10-22T00:00:10;27.10;;;16.30;;
21507;SDS011;10915;54.352;9.074;2022-10-22T00:02:37;29.92;;;20.10;;
21507;SDS011;10915;54.352;9.074;2022-10-22T00:05:03;36.33;;;24.63;;
21507;SDS011;10915;54.352;9.074;2022-10-22T00:07:29;34.88;;;22.95;;
21507;SDS011;10915;54.352;9.074;2022-10-22T00:09:55;35.63;;;23.00;;
21507;SDS011;10915;54.352;9.074;2022-10-22T00:12:20;28.52;;;18.98;;
21507;SDS011;10915;54.352;9.074;2022-10-22T00:14:46;34.73;;;22.57;;
21507;SDS011;10915;54.352;9.074;2022-10-22T00:17:12;32.17;;;21.23;;
21507;SDS011;10915;54.352;9.074;2022-10-22T00:19:39;36.37;;;21.33;;
21507;SDS011;10915;54.352;9.074;2022-10-22T00:22:05;33.28;;;22.50;;
21507;SDS011;10915;54.352;9.074;2022-10-22T00:24:31;29.33;;;21.55;;
21507;SDS011;10915;54.352;9.074;2022-10-22T00:26:58;35.15;;;22.20;;
21507;SDS011;10915;54.352;9.074;2022-10-22T00:29:24;37.15;;;23.05;;
21507;SDS011;10915;54.352;9.074;2022-10-22T00:31:49;32.17;;;19.00;;
21507;SDS011;10915;54.352;9.074;2022-10-22T00:34:19;28.13;;;20.17;;
21507;SDS011;10915;54.352;9.074;2022-10-22T00:36:46;33.50;;;22.27;;
21507;SDS011;10915;54.352;9.074;2022-10-22T00:39:13;32.60;;;22.00;;
21507;SDS011;10915;54.352;9.074;2022-10-22T00:41:51;22.57;;;16.03;;
21507;SDS011;10915;54.352;9.074;2022-10-22T00:47:21;29.63;;;20.03;;
21507;SDS011;10915;54.352;9.074;2022-10-22T00:49:48;29.57;;;19.90;;
21507;SDS011;10915;54.352;9.074;2022-10-22T00:52:16;35.33;;;24.30;;
21507;SDS011;10915;54.352;9.074;2022-10-22T00:54:42;37.33;;;21.40;;
21507;SDS011;10915;54.352;9.074;2022-10-22T00:57:08;38.53;;;25.20;;
21507;SDS011;10915;54.352;9.074;2022-10-22T00:59:34;36.75;;;24.88;;
21507;SDS011;10915;54.352;9.074;2022-10-22T01:02:01;39.05;;;23.80;;
21507;SDS011;10915;54.352;9.074;2022-10-22T01:04:27;35.67;;;24.17;;
21507;SDS011;10915;54.352;9.074;2022-10-22T01:06:52;33.20;;;22.27;;
21507;SDS011;10915;54.352;9.074;2022-10-22T01:14:24;41.08;;;26.63;;
21507;SDS011;10915;54.352;9.074;2022-10-22T01:22:04;50.40;;;30.77;;
21507;SDS011;10915;54.352;9.074;2022-10-22T01:30:11;53.30;;;31.53;;
21507;SDS011;10915;54.352;9.074;2022-10-22T01:32:40;57.47;;;34.17;;
21507;SDS011;10915;54.352;9.074;2022-10-22T01:35:13;54.78;;;32.55;;
21507;SDS011;10915;54.352;9.074;2022-10-22T01:37:47;53.33;;;32.92;;
21507;SDS011;10915;54.352;9.074;2022-10-22T01:40:16;55.50;;;32.85;;
21507;SDS011;10915;54.352;9.074;2022-10-22T01:42:53;50.80;;;31.42;;
21507;SDS011;10915;54.352;9.074;2022-10-22T01:45:27;52.45;;;32.47;;
21507;SDS011;10915;54.352;9.074;2022-10-22T01:53:13;58.20;;;34.08;;
21507;SDS011;10915;54.352;9.074;2022-10-22T01:55:50;53.47;;;33.78;;
21507;SDS011;10915;54.352;9.074;2022-10-22T02:04:08;60.88;;;33.83;;
21507;SDS011;10915;54.352;9.074;2022-10-22T02:06:39;58.53;;;33.42;;
21507;SDS011;10915;54.352;9.074;2022-10-22T02:09:08;55.70;;;33.05;;
21507;SDS011;10915;54.352;9.074;2022-10-22T02:11:36;64.22;;;34.03;;
21507;SDS011;10915;54.352;9.074;2022-10-22T02:14:02;66.20;;;34.00;;
21507;SDS011;10915;54.352;9.074;2022-10-22T02:16:35;64.43;;;34.00;;
21507;SDS011;10915;54.352;9.074;2022-10-22T02:19:13;54.20;;;31.35;;
21507;SDS011;10915;54.352;9.074;2022-10-22T02:22:00;48.33;;;26.17;;
21507;SDS011;10915;54.352;9.074;2022-10-22T02:24:26;91.53;;;26.77;;
21507;SDS011;10915;54.352;9.074;2022-10-22T02:27:04;111.60;;;27.93;;
21507;SDS011;10915;54.352;9.074;2022-10-22T02:32:20;84.78;;;30.38;;
21507;SDS011;10915;54.352;9.074;2022-10-22T02:34:50;108.65;;;32.03;;
21507;SDS011;10915;54.352;9.074;2022-10-22T02:37:17;169.98;;;32.50;;
21507;SDS011;10915;54.352;9.074;2022-10-22T02:39:44;108.13;;;32.27;;
21507;SDS011;10915;54.352;9.074;2022-10-22T02:42:10;60.37;;;27.07;;
21507;SDS011;10915;54.352;9.074;2022-10-22T02:44:36;90.00;;;25.83;;
21507;SDS011;10915;54.352;9.074;2022-10-22T02:47:02;96.55;;;25.55;;
21507;SDS011;10915;54.352;9.074;2022-10-22T02:49:29;110.65;;;24.75;;
21507;SDS011;10915;54.352;9.074;2022-10-22T02:51:54;102.45;;;25.95;;
21507;SDS011;10915;54.352;9.074;2022-10-22T02:54:20;64.03;;;23.30;;
21507;SDS011;10915;54.352;9.074;2022-10-22T02:56:46;76.97;;;22.67;;
21507;SDS011;10915;54.352;9.074;2022-10-22T02:59:12;64.07;;;22.33;;
21507;SDS011;10915;54.352;9.074;2022-10-22T03:01:37;50.42;;;21.48;;
21507;SDS011;10915;54.352;9.074;2022-10-22T03:04:03;69.13;;;23.20;;
21507;SDS011;10915;54.352;9.074;2022-10-22T03:06:29;53.60;;;21.77;;
21507;SDS011;10915;54.352;9.074;2022-10-22T03:08:55;31.47;;;18.40;;
21507;SDS011;10915;54.352;9.074;2022-10-22T03:11:20;38.17;;;18.15;;
21507;SDS011;10915;54.352;9.074;2022-10-22T03:13:46;38.85;;;16.42;;
21507;SDS011;10915;54.352;9.074;2022-10-22T03:16:12;52.75;;;17.95;;
21507;SDS011;10915;54.352;9.074;2022-10-22T03:18:37;28.52;;;16.00;;
21507;SDS011;10915;54.352;9.074;2022-10-22T03:21:08;32.93;;;17.77;;
21507;SDS011;10915;54.352;9.074;2022-10-22T03:23:34;31.10;;;16.80;;
21507;SDS011;10915;54.352;9.074;2022-10-22T03:26:01;20.98;;;16.00;;
21507;SDS011;10915;54.352;9.074;2022-10-22T03:28:26;26.23;;;17.50;;
21507;SDS011;10915;54.352;9.074;2022-10-22T03:30:52;20.07;;;16.30;;
21507;SDS011;10915;54.352;9.074;2022-10-22T03:33:18;30.20;;;17.13;;
21507;SDS011;10915;54.352;9.074;2022-10-22T03:35:44;33.15;;;17.40;;
21507;SDS011;10915;54.352;9.074;2022-10-22T03:38:11;32.20;;;16.48;;
21507;SDS011;10915;54.352;9.074;2022-10-22T03:40:38;24.17;;;15.55;;
21507;SDS011;10915;54.352;9.074;2022-10-22T03:43:05;21.17;;;15.27;;
21507;SDS011;10915;54.352;9.074;2022-10-22T03:45:31;22.83;;;16.33;;
21507;SDS011;10915;54.352;9.074;2022-10-22T03:47:56;20.73;;;16.08;;
21507;SDS011;10915;54.352;9.074;2022-10-22T03:50:22;21.38;;;15.30;;
21507;SDS011;10915;54.352;9.074;2022-10-22T03:52:48;22.80;;;15.93;;
21507;SDS011;10915;54.352;9.074;2022-10-22T03:55:14;34.23;;;16.47;;
21507;SDS011;10915;54.352;9.074;2022-10-22T03:57:39;26.60;;;16.52;;
21507;SDS011;10915;54.352;9.074;2022-10-22T04:00:05;24.52;;;16.13;;
21507;SDS011;10915;54.352;9.074;2022-10-22T04:02:32;26.80;;;15.70;;
21507;SDS011;10915;54.352;9.074;2022-10-22T04:04:58;27.52;;;16.95;;
21507;SDS011;10915;54.352;9.074;2022-10-22T04:07:24;34.78;;;18.85;;
21507;SDS011;10915;54.352;9.074;2022-10-22T04:09:50;24.60;;;17.23;;
21507;SDS011;10915;54.352;9.074;2022-10-22T04:12:15;23.02;;;17.40;;
21507;SDS011;10915;54.352;9.074;2022-10-22T04:14:41;32.67;;;18.53;;
21507;SDS011;10915;54.352;9.074;2022-10-22T04:17:07;23.85;;;16.75;;
21507;SDS011;10915;54.352;9.074;2022-10-22T04:19:32;32.55;;;19.45;;
21507;SDS011;10915;54.352;9.074;2022-10-22T04:21:58;34.10;;;20.37;;
21507;SDS011;10915;54.352;9.074;2022-10-22T04:24:24;34.92;;;19.30;;
21507;SDS011;10915;54.352;9.074;2022-10-22T04:26:52;26.40;;;18.80;;
21507;SDS011;10915;54.352;9.074;2022-10-22T04:29:19;25.85;;;17.92;;
21507;SDS011;10915;54.352;9.074;2022-10-22T04:31:45;51.87;;;20.13;;
21507;SDS011;10915;54.352;9.074;2022-10-22T04:34:10;46.13;;;18.27;;
21507;SDS011;10915;54.352;9.074;2022-10-22T04:36:36;107.25;;;26.90;;
21507;SDS011;10915;54.352;9.074;2022-10-22T04:39:02;22.70;;;17.00;;
21507;SDS011;10915;54.352;9.074;2022-10-22T04:41:30;25.33;;;17.63;;
21507;SDS011;10915;54.352;9.074;2022-10-22T04:43:57;24.38;;;18.05;;
21507;SDS011;10915;54.352;9.074;2022-10-22T04:46:24;24.95;;;19.13;;
21507;SDS011;10915;54.352;9.074;2022-10-22T04:48:54;27.58;;;19.40;;
21507;SDS011;10915;54.352;9.074;2022-10-22T04:51:20;26.02;;;18.58;;
21507;SDS011;10915;54.352;9.074;2022-10-22T04:53:47;27.10;;;19.45;;
21507;SDS011;10915;54.352;9.074;2022-10-22T04:56:14;27.90;;;19.67;;
21507;SDS011;10915;54.352;9.074;2022-10-22T04:58:53;22.63;;;18.33;;
21507;SDS011;10915;54.352;9.074;2022-10-22T05:01:21;26.60;;;19.50;;
21507;SDS011;10915;54.352;9.074;2022-10-22T05:03:58;32.73;;;21.20;;
21507;SDS011;10915;54.352;9.074;2022-10-22T05:06:26;27.43;;;17.73;;
21507;SDS011;10915;54.352;9.074;2022-10-22T05:08:54;30.73;;;18.77;;
21507;SDS011;10915;54.352;9.074;2022-10-22T05:11:22;42.03;;;20.67;;
21507;SDS011;10915;54.352;9.074;2022-10-22T05:13:50;56.05;;;26.63;;
21507;SDS011;10915;54.352;9.074;2022-10-22T05:16:16;36.17;;;23.75;;
21507;SDS011;10915;54.352;9.074;2022-10-22T05:18:42;38.40;;;23.93;;
21507;SDS011;10915;54.352;9.074;2022-10-22T05:21:09;38.95;;;24.00;;
21507;SDS011;10915;54.352;9.074;2022-10-22T05:23:36;40.90;;;22.13;;
21507;SDS011;10915;54.352;9.074;2022-10-22T05:26:03;35.13;;;21.63;;
21507;SDS011;10915;54.352;9.074;2022-10-22T05:28:30;45.33;;;23.93;;
21507;SDS011;10915;54.352;9.074;2022-10-22T05:30:57;40.80;;;23.73;;
21507;SDS011;10915;54.352;9.074;2022-10-22T05:33:24;35.07;;;23.67;;
21507;SDS011;10915;54.352;9.074;2022-10-22T05:35:50;31.88;;;24.85;;
21507;SDS011;10915;54.352;9.074;2022-10-22T05:38:17;46.67;;;26.33;;
21507;SDS011;10915;54.352;9.074;2022-10-22T05:40:43;47.70;;;23.93;;
21507;SDS011;10915;54.352;9.074;2022-10-22T05:43:09;36.75;;;25.25;;
21507;SDS011;10915;54.352;9.074;2022-10-22T05:45:36;26.23;;;20.50;;
21507;SDS011;10915;54.352;9.074;2022-10-22T05:48:03;33.53;;;20.60;;
21507;SDS011;10915;54.352;9.074;2022-10-22T05:50:29;57.47;;;25.27;;
21507;SDS011;10915;54.352;9.074;2022-10-22T05:52:56;41.37;;;22.93;;
21507;SDS011;10915;54.352;9.074;2022-10-22T05:55:21;58.47;;;26.43;;
21507;SDS011;10915;54.352;9.074;2022-10-22T05:57:47;42.17;;;26.37;;
21507;SDS011;10915;54.352;9.074;2022-10-22T06:00:14;48.95;;;27.40;;
21507;SDS011;10915;54.352;9.074;2022-10-22T06:02:40;42.67;;;25.88;;
21507;SDS011;10915;54.352;9.074;2022-10-22T06:05:06;26.73;;;19.80;;
21507;SDS011;10915;54.352;9.074;2022-10-22T06:07:32;35.17;;;21.47;;
21507;SDS011;10915;54.352;9.074;2022-10-22T06:10:00;38.33;;;22.17;;
21507;SDS011;10915;54.352;9.074;2022-10-22T06:12:26;102.22;;;33.80;;
21507;SDS011;10915;54.352;9.074;2022-10-22T06:14:52;35.73;;;24.47;;
21507;SDS011;10915;54.352;9.074;2022-10-22T06:17:17;52.20;;;25.40;;
21507;SDS011;10915;54.352;9.074;2022-10-22T06:19:44;33.93;;;22.53;;
21507;SDS011;10915;54.352;9.074;2022-10-22T06:22:09;62.03;;;29.33;;
21507;SDS011;10915;54.352;9.074;2022-10-22T06:24:35;41.70;;;27.48;;
21507;SDS011;10915;54.352;9.074;2022-10-22T06:27:01;63.67;;;29.73;;
21507;SDS011;10915;54.352;9.074;2022-10-22T06:29:27;42.13;;;24.47;;
21507;SDS011;10915;54.352;9.074;2022-10-22T06:31:52;41.93;;;26.43;;
21507;SDS011;10915;54.352;9.074;2022-10-22T06:34:18;41.30;;;28.67;;
21507;SDS011;10915;54.352;9.074;2022-10-22T06:36:44;43.07;;;26.37;;
21507;SDS011;10915;54.352;9.074;2022-10-22T06:39:14;38.53;;;28.97;;
21507;SDS011;10915;54.352;9.074;2022-10-22T06:41:41;43.73;;;28.37;;
21507;SDS011;10915;54.352;9.074;2022-10-22T06:44:08;76.10;;;34.73;;
21507;SDS011;10915;54.352;9.074;2022-10-22T06:46:41;39.87;;;27.57;;
21507;SDS011;10915;54.352;9.074;2022-10-22T06:49:08;75.30;;;37.13;;
21507;SDS011;10915;54.352;9.074;2022-10-22T06:51:38;37.03;;;28.90;;
21507;SDS011;10915;54.352;9.074;2022-10-22T06:54:03;41.57;;;30.53;;
21507;SDS011;10915;54.352;9.074;2022-10-22T06:56:29;38.77;;;29.30;;
21507;SDS011;10915;54.352;9.074;2022-10-22T06:58:55;40.97;;;32.10;;
21507;SDS011;10915;54.352;9.074;2022-10-22T07:01:26;46.43;;;29.00;;
21507;SDS011;10915;54.352;9.074;2022-10-22T07:03:53;32.23;;;24.93;;
21507;SDS011;10915;54.352;9.074;2022-10-22T07:06:20;42.87;;;27.77;;
21507;SDS011;10915;54.352;9.074;2022-10-22T07:08:47;35.53;;;26.13;;
21507;SDS011;10915;54.352;9.074;2022-10-22T07:11:15;27.27;;;24.33;;
21507;SDS011;10915;54.352;9.074;2022-10-22T07:13:43;34.83;;;28.10;;
21507;SDS011;10915;54.352;9.074;2022-10-22T07:16:09;72.23;;;37.83;;
21507;SDS011;10915;54.352;9.074;2022-10-22T07:18:36;125.23;;;35.80;;
21507;SDS011;10915;54.352;9.074;2022-10-22T07:21:03;62.97;;;35.88;;
21507;SDS011;10915;54.352;9.074;2022-10-22T07:23:29;51.70;;;28.47;;
21507;SDS011;10915;54.352;9.074;2022-10-22T07:25:55;204.20;;;47.33;;
21507;SDS011;10915;54.352;9.074;2022-10-22T07:28:21;31.40;;;23.87;;
21507;SDS011;10915;54.352;9.074;2022-10-22T07:30:57;41.57;;;29.67;;
21507;SDS011;10915;54.352;9.074;2022-10-22T07:33:33;47.50;;;29.97;;
21507;SDS011;10915;54.352;9.074;2022-10-22T07:36:00;35.00;;;27.37;;
21507;SDS011;10915;54.352;9.074;2022-10-22T07:38:27;56.47;;;32.87;;
21507;SDS011;10915;54.352;9.074;2022-10-22T07:40:54;41.47;;;31.30;;
21507;SDS011;10915;54.352;9.074;2022-10-22T07:43:20;55.23;;;33.20;;
21507;SDS011;10915;54.352;9.074;2022-10-22T07:45:46;52.43;;;33.83;;
21507;SDS011;10915;54.352;9.074;2022-10-22T07:48:11;38.10;;;28.87;;
21507;SDS011;10915;54.352;9.074;2022-10-22T07:50:37;43.77;;;29.40;;
21507;SDS011;10915;54.352;9.074;2022-10-22T07:53:03;43.00;;;29.63;;
21507;SDS011;10915;54.352;9.074;2022-10-22T07:55:29;53.23;;;33.70;;
21507;SDS011;10915;54.352;9.074;2022-10-22T07:57:55;34.77;;;28.80;;
21507;SDS011;10915;54.352;9.074;2022-10-22T08:00:21;46.93;;;32.33;;
21507;SDS011;10915;54.352;9.074;2022-10-22T08:02:47;42.47;;;29.30;;
21507;SDS011;10915;54.352;9.074;2022-10-22T08:05:12;49.37;;;32.30;;
21507;SDS011;10915;54.352;9.074;2022-10-22T08:07:38;48.05;;;35.03;;
21507;SDS011;10915;54.352;9.074;2022-10-22T08:10:05;51.35;;;34.05;;
21507;SDS011;10915;54.352;9.074;2022-10-22T08:12:31;63.83;;;35.37;;
21507;SDS011;10915;54.352;9.074;2022-10-22T08:14:57;43.73;;;30.47;;
21507;SDS011;10915;54.352;9.074;2022-10-22T08:17:23;47.22;;;30.38;;
21507;SDS011;10915;54.352;9.074;2022-10-22T08:19:48;46.00;;;30.07;;
21507;SDS011;10915;54.352;9.074;2022-10-22T08:22:14;47.47;;;30.40;;
21507;SDS011;10915;54.352;9.074;2022-10-22T08:24:40;42.60;;;26.42;;
21507;SDS011;10915;54.352;9.074;2022-10-22T08:27:06;56.00;;;31.27;;
21507;SDS011;10915;54.352;9.074;2022-10-22T08:29:31;55.90;;;31.87;;
21507;SDS011;10915;54.352;9.074;2022-10-22T08:31:57;45.80;;;28.90;;
21507;SDS011;10915;54.352;9.074;2022-10-22T08:34:23;37.30;;;24.03;;
21507;SDS011;10915;54.352;9.074;2022-10-22T08:36:51;40.17;;;25.70;;
21507;SDS011;10915;54.352;9.074;2022-10-22T08:39:17;38.73;;;26.17;;
21507;SDS011;10915;54.352;9.074;2022-10-22T08:50:31;45.60;;;30.13;;
21507;SDS011;10915;54.352;9.074;2022-10-22T08:53:05;45.27;;;28.40;;
21507;SDS011;10915;54.352;9.074;2022-10-22T08:55:37;46.67;;;28.13;;
21507;SDS011;10915;54.352;9.074;2022-10-22T09:00:58;40.50;;;27.05;;
21507;SDS011;10915;54.352;9.074;2022-10-22T09:03:33;42.47;;;27.23;;
21507;SDS011;10915;54.352;9.074;2022-10-22T09:06:01;42.00;;;26.80;;
21507;SDS011;10915;54.352;9.074;2022-10-22T09:08:35;40.17;;;26.65;;
21507;SDS011;10915;54.352;9.074;2022-10-22T09:11:04;40.30;;;26.70;;
21507;SDS011;10915;54.352;9.074;2022-10-22T09:13:38;37.33;;;24.85;;
21507;SDS011;10915;54.352;9.074;2022-10-22T09:16:16;36.33;;;24.10;;
21507;SDS011;10915;54.352;9.074;2022-10-22T09:24:29;31.83;;;22.05;;
21507;SDS011;10915;54.352;9.074;2022-10-22T09:27:01;33.08;;;22.25;;
21507;SDS011;10915;54.352;9.074;2022-10-22T09:29:34;26.25;;;19.40;;
21507;SDS011;10915;54.352;9.074;2022-10-22T09:32:01;27.37;;;18.00;;
21507;SDS011;10915;54.352;9.074;2022-10-22T09:34:29;24.17;;;18.13;;
21507;SDS011;10915;54.352;9.074;2022-10-22T09:36:59;25.77;;;17.88;;
21507;SDS011;10915;54.352;9.074;2022-10-22T09:39:28;23.55;;;16.75;;
21507;SDS011;10915;54.352;9.074;2022-10-22T09:42:01;22.00;;;15.60;;
21507;SDS011;10915;54.352;9.074;2022-10-22T09:44:28;24.33;;;16.13;;
21507;SDS011;10915;54.352;9.074;2022-10-22T09:46:56;19.85;;;15.50;;
21507;SDS011;10915;54.352;9.074;2022-10-22T09:49:22;22.23;;;15.75;;
21507;SDS011;10915;54.352;9.074;2022-10-22T09:51:56;19.33;;;14.67;;
21507;SDS011;10915;54.352;9.074;2022-10-22T09:57:19;19.38;;;13.63;;
21507;SDS011;10915;54.352;9.074;2022-10-22T09:59:47;20.13;;;12.75;;
21507;SDS011;10915;54.352;9.074;2022-10-22T10:02:18;23.70;;;12.80;;
21507;SDS011;10915;54.352;9.074;2022-10-22T10:04:55;15.37;;;11.93;;
21507;SDS011;10915;54.352;9.074;2022-10-22T10:07:23;18.47;;;11.20;;
21507;SDS011;10915;54.352;9.074;2022-10-22T10:09:50;15.73;;;10.68;;
21507;SDS011;10915;54.352;9.074;2022-10-22T10:28:42;15.32;;;8.43;;
21507;SDS011;10915;54.352;9.074;2022-10-22T10:31:19;17.27;;;10.95;;
21507;SDS011;10915;54.352;9.074;2022-10-22T10:36:44;14.52;;;9.13;;
21507;SDS011;10915;54.352;9.074;2022-10-22T10:39:18;14.05;;;8.07;;
21507;SDS011;10915;54.352;9.074;2022-10-22T10:50:11;15.17;;;6.13;;
21507;SDS011;10915;54.352;9.074;2022-10-22T10:52:47;13.00;;;5.73;;
21507;SDS011;10915;54.352;9.074;2022-10-22T10:58:29;10.40;;;6.03;;
21507;SDS011;10915;54.352;9.074;2022-10-22T11:06:35;10.37;;;5.40;;
21507;SDS011;10915;54.352;9.074;2022-10-22T11:09:47;13.07;;;5.10;;
21507;SDS011;10915;54.352;9.074;2022-10-22T11:12:12;14.43;;;5.17;;
21507;SDS011;10915;54.352;9.074;2022-10-22T11:14:53;13.70;;;6.13;;
21507;SDS011;10915;54.352;9.074;2022-10-22T11:17:20;10.63;;;5.45;;
21507;SDS011;10915;54.352;9.074;2022-10-22T11:19:59;13.48;;;5.72;;
21507;SDS011;10915;54.352;9.074;2022-10-22T11:22:29;11.02;;;5.82;;
21507;SDS011;10915;54.352;9.074;2022-10-22T11:28:07;10.70;;;6.05;;
21507;SDS011;10915;54.352;9.074;2022-10-22T11:30:59;12.07;;;6.30;;
21507;SDS011;10915;54.352;9.074;2022-10-22T11:33:32;13.73;;;5.88;;
21507;SDS011;10915;54.352;9.074;2022-10-22T11:36:05;11.52;;;5.97;;
21507;SDS011;10915;54.352;9.074;2022-10-22T11:38:34;13.18;;;6.40;;
21507;SDS011;10915;54.352;9.074;2022-10-22T11:41:02;12.10;;;5.87;;
21507;SDS011;10915;54.352;9.074;2022-10-22T11:43:31;10.50;;;5.70;;
21507;SDS011;10915;54.352;9.074;2022-10-22T11:48:42;12.50;;;5.90;;
21507;SDS011;10915;54.352;9.074;2022-10-22T11:51:28;12.45;;;6.00;;
21507;SDS011;10915;54.352;9.074;2022-10-22T11:53:54;12.50;;;6.13;;
21507;SDS011;10915;54.352;9.074;2022-10-22T11:56:24;29.10;;;25.27;;
21507;SDS011;10915;54.352;9.074;2022-10-22T11:58:51;11.40;;;6.25;;
21507;SDS011;10915;54.352;9.074;2022-10-22T12:01:23;14.20;;;6.25;;
21507;SDS011;10915;54.352;9.074;2022-10-22T12:06:23;14.80;;;6.43;;
21507;SDS011;10915;54.352;9.074;2022-10-22T12:08:58;13.63;;;6.32;;
21507;SDS011;10915;54.352;9.074;2022-10-22T12:11:46;12.95;;;6.18;;
21507;SDS011;10915;54.352;9.074;2022-10-22T12:14:19;13.80;;;6.35;;
21507;SDS011;10915;54.352;9.074;2022-10-22T12:16:51;15.25;;;6.05;;
21507;SDS011;10915;54.352;9.074;2022-10-22T12:21:47;13.83;;;5.73;;
21507;SDS011;10915;54.352;9.074;2022-10-22T12:24:19;10.80;;;5.50;;
21507;SDS011;10915;54.352;9.074;2022-10-22T12:26:46;14.63;;;6.00;;
21507;SDS011;10915;54.352;9.074;2022-10-22T12:29:16;12.07;;;6.43;;
21507;SDS011;10915;54.352;9.074;2022-10-22T12:31:44;15.68;;;6.18;;
21507;SDS011;10915;54.352;9.074;2022-10-22T12:34:14;15.32;;;6.47;;
21507;SDS011;10915;54.352;9.074;2022-10-22T12:36:42;11.30;;;6.32;;
21507;SDS011;10915;54.352;9.074;2022-10-22T12:39:14;13.70;;;6.88;;
21507;SDS011;10915;54.352;9.074;2022-10-22T12:41:42;15.03;;;7.33;;
21507;SDS011;10915;54.352;9.074;2022-10-22T12:44:10;18.73;;;7.35;;
21507;SDS011;10915;54.352;9.074;2022-10-22T12:46:40;15.30;;;7.40;;
21507;SDS011;10915;54.352;9.074;2022-10-22T12:49:16;12.95;;;7.20;;
21507;SDS011;10915;54.352;9.074;2022-10-22T12:51:47;9.33;;;6.40;;
21507;SDS011;10915;54.352;9.074;2022-10-22T12:54:20;14.43;;;7.93;;
21507;SDS011;10915;54.352;9.074;2022-10-22T12:56:46;14.63;;;7.57;;
21507;SDS011;10915;54.352;9.074;2022-10-22T12:59:19;13.07;;;7.67;;
21507;SDS011;10915;54.352;9.074;2022-10-22T13:01:49;13.13;;;7.73;;
21507;SDS011;10915;54.352;9.074;2022-10-22T13:12:07;17.97;;;8.10;;
21507;SDS011;10915;54.352;9.074;2022-10-22T13:14:38;14.13;;;8.45;;
21507;SDS011;10915;54.352;9.074;2022-10-22T13:22:35;19.33;;;8.38;;
21507;SDS011;10915;54.352;9.074;2022-10-22T13:25:24;14.38;;;8.10;;
21507;SDS011;10915;54.352;9.074;2022-10-22T13:30:31;15.02;;;7.60;;
21507;SDS011;10915;54.352;9.074;2022-10-22T13:33:03;13.52;;;7.75;;
21507;SDS011;10915;54.352;9.074;2022-10-22T13:35:45;15.18;;;8.30;;
21507;SDS011;10915;54.352;9.074;2022-10-22T13:38:14;13.27;;;8.05;;
21507;SDS011;10915;54.352;9.074;2022-10-22T13:40:44;16.98;;;7.95;;
21507;SDS011;10915;54.352;9.074;2022-10-22T13:43:10;12.95;;;7.00;;
21507;SDS011;10915;54.352;9.074;2022-10-22T13:45:36;12.67;;;6.63;;
21507;SDS011;10915;54.352;9.074;2022-10-22T13:48:02;16.55;;;7.50;;
21507;SDS011;10915;54.352;9.074;2022-10-22T13:50:28;14.40;;;6.83;;
21507;SDS011;10915;54.352;9.074;2022-10-22T13:52:55;12.70;;;6.47;;
21507;SDS011;10915;54.352;9.074;2022-10-22T13:55:26;14.43;;;6.80;;
21507;SDS011;10915;54.352;9.074;2022-10-22T13:58:05;15.57;;;7.70;;
21507;SDS011;10915;54.352;9.074;2022-10-22T14:00:35;13.80;;;7.85;;
21507;SDS011;10915;54.352;9.074;2022-10-22T14:03:03;18.30;;;7.82;;
21507;SDS011;10915;54.352;9.074;2022-10-22T14:05:29;14.02;;;7.60;;
21507;SDS011;10915;54.352;9.074;2022-10-22T14:07:59;16.00;;;8.13;;
21507;SDS011;10915;54.352;9.074;2022-10-22T14:10:26;18.60;;;7.75;;
21507;SDS011;10915;54.352;9.074;2022-10-22T14:12:52;15.18;;;8.18;;
21507;SDS011;10915;54.352;9.074;2022-10-22T14:15:18;17.13;;;8.20;;
21507;SDS011;10915;54.352;9.074;2022-10-22T14:17:47;15.68;;;8.02;;
21507;SDS011;10915;54.352;9.074;2022-10-22T14:20:17;16.23;;;7.75;;
21507;SDS011;10915;54.352;9.074;2022-10-22T14:22:48;11.13;;;6.70;;
21507;SDS011;10915;54.352;9.074;2022-10-22T14:25:15;16.30;;;7.68;;
21507;SDS011;10915;54.352;9.074;2022-10-22T14:27:43;13.10;;;6.85;;
21507;SDS011;10915;54.352;9.074;2022-10-22T14:30:12;13.83;;;6.40;;
21507;SDS011;10915;54.352;9.074;2022-10-22T14:32:42;15.90;;;6.73;;
21507;SDS011;10915;54.352;9.074;2022-10-22T14:35:12;19.85;;;10.55;;
21507;SDS011;10915;54.352;9.074;2022-10-22T14:37:40;14.97;;;6.10;;
21507;SDS011;10915;54.352;9.074;2022-10-22T14:40:06;15.60;;;6.07;;
21507;SDS011;10915;54.352;9.074;2022-10-22T14:42:34;13.63;;;6.57;;
21507;SDS011;10915;54.352;9.074;2022-10-22T14:45:04;12.70;;;5.63;;
21507;SDS011;10915;54.352;9.074;2022-10-22T14:47:30;15.85;;;6.80;;
21507;SDS011;10915;54.352;9.074;2022-10-22T14:49:56;12.87;;;6.17;;
21507;SDS011;10915;54.352;9.074;2022-10-22T14:52:22;14.02;;;6.57;;
21507;SDS011;10915;54.352;9.074;2022-10-22T14:54:47;24.63;;;12.00;;
21507;SDS011;10915;54.352;9.074;2022-10-22T14:57:13;18.00;;;9.57;;
21507;SDS011;10915;54.352;9.074;2022-10-22T14:59:40;16.70;;;6.93;;
21507;SDS011;10915;54.352;9.074;2022-10-22T15:02:07;13.63;;;7.03;;
21507;SDS011;10915;54.352;9.074;2022-10-22T15:04:36;13.17;;;7.77;;
21507;SDS011;10915;54.352;9.074;2022-10-22T15:07:02;16.60;;;7.37;;
21507;SDS011;10915;54.352;9.074;2022-10-22T15:09:27;15.40;;;7.40;;
21507;SDS011;10915;54.352;9.074;2022-10-22T15:11:53;23.97;;;11.97;;
21507;SDS011;10915;54.352;9.074;2022-10-22T15:14:19;34.77;;;18.63;;
21507;SDS011;10915;54.352;9.074;2022-10-22T15:16:45;33.55;;;22.60;;
21507;SDS011;10915;54.352;9.074;2022-10-22T15:19:11;40.80;;;24.67;;
21507;SDS011;10915;54.352;9.074;2022-10-22T15:21:37;23.50;;;15.15;;
21507;SDS011;10915;54.352;9.074;2022-10-22T15:24:03;20.80;;;11.77;;
21507;SDS011;10915;54.352;9.074;2022-10-22T15:26:29;14.50;;;9.23;;
21507;SDS011;10915;54.352;9.074;2022-10-22T15:28:54;21.67;;;8.87;;
21507;SDS011;10915;54.352;9.074;2022-10-22T15:31:40;17.20;;;9.37;;
21507;SDS011;10915;54.352;9.074;2022-10-22T15:34:07;16.37;;;9.20;;
21507;SDS011;10915;54.352;9.074;2022-10-22T15:36:33;18.30;;;8.43;;
21507;SDS011;10915;54.352;9.074;2022-10-22T15:38:58;17.38;;;9.80;;
21507;SDS011;10915;54.352;9.074;2022-10-22T15:41:24;18.92;;;9.88;;
21507;SDS011;10915;54.352;9.074;2022-10-22T15:43:50;20.37;;;11.43;;
21507;SDS011;10915;54.352;9.074;2022-10-22T15:46:17;14.40;;;8.80;;
21507;SDS011;10915;54.352;9.074;2022-10-22T15:48:43;19.30;;;9.57;;
21507;SDS011;10915;54.352;9.074;2022-10-22T15:51:13;15.23;;;8.77;;
21507;SDS011;10915;54.352;9.074;2022-10-22T15:53:42;14.30;;;10.00;;
21507;SDS011;10915;54.352;9.074;2022-10-22T15:56:14;19.23;;;9.67;;
21507;SDS011;10915;54.352;9.074;2022-10-22T15:58:39;16.27;;;9.70;;
21507;SDS011;10915;54.352;9.074;2022-10-22T16:01:06;16.70;;;9.63;;
21507;SDS011;10915;54.352;9.074;2022-10-22T16:03:34;18.87;;;9.73;;
21507;SDS011;10915;54.352;9.074;2022-10-22T16:06:00;13.73;;;8.67;;
21507;SDS011;10915;54.352;9.074;2022-10-22T16:08:26;15.83;;;9.90;;
21507;SDS011;10915;54.352;9.074;2022-10-22T16:10:52;20.10;;;10.23;;
21507;SDS011;10915;54.352;9.074;2022-10-22T16:13:18;15.00;;;9.63;;
21507;SDS011;10915;54.352;9.074;2022-10-22T16:15:49;15.50;;;10.53;;
21507;SDS011;10915;54.352;9.074;2022-10-22T16:18:15;17.57;;;10.47;;
21507;SDS011;10915;54.352;9.074;2022-10-22T16:20:41;18.83;;;10.53;;
21507;SDS011;10915;54.352;9.074;2022-10-22T16:23:07;17.10;;;10.57;;
21507;SDS011;10915;54.352;9.074;2022-10-22T16:25:39;20.00;;;11.30;;
21507;SDS011;10915;54.352;9.074;2022-10-22T16:28:06;20.90;;;11.40;;